sensor_id;sensor_type;location;lat;lon;timestamp;pressure;altitude;pressure_sealevel;temperature;humidity
26865;BME280;40618;51.166;10.322;2023-05-13T00:01:23;97668.34;;;14.28;60.59
26865;BME280;40618;51.166;10.322;2023-05-13T00:03:49;97666.00;;;14.22;60.84
26865;BME280;40618;51.166;10.322;2023-05-13T00:06:15;97668.00;;;14.15;61.19
26865;BME280;40618;51.166;10.322;2023-05-13T00:08:40;97668.50;;;14.03;60.98
26865;BME280;40618;51.166;10.322;2023-05-13T00:11:06;97670.50;;;13.96;60.87
26865;BME280;40618;51.166;10.322;2023-05-13T00:13:32;97673.13;;;13.96;60.92
26865;BME280;40618;51.166;10.322;2023-05-13T00:15:58;97675.53;;;14.01;61.07
26865;BME280;40618;51.166;10.322;2023-05-13T00:18:24;97671.88;;;14.05;60.75
26865;BME280;40618;51.166;10.322;2023-05-13T00:20:50;97671.19;;;14.01;60.79
26865;BME280;40618;51.166;10.322;2023-05-13T00:23:16;97670.66;;;13.93;60.96
26865;BME280;40618;51.166;10.322;2023-05-13T00:25:42;97675.91;;;13.92;60.92
26865;BME280;40618;51.166;10.322;2023-05-13T00:28:09;97673.47;;;13.87;61.32
26865;BME280;40618;51.166;10.322;2023-05-13T00:30:35;97669.13;;;13.87;61.20
26865;BME280;40618;51.166;10.322;2023-05-13T00:33:01;97670.22;;;13.82;61.55
26865;BME280;40618;51.166;10.322;2023-05-13T00:35:27;97661.69;;;13.78;61.25
26865;BME280;40618;51.166;10.322;2023-05-13T00:37:52;97672.09;;;13.78;61.20
26865;BME280;40618;51.166;10.322;2023-05-13T00:40:20;97673.13;;;13.74;61.48
26865;BME280;40618;51.166;10.322;2023-05-13T00:42:47;97681.06;;;13.71;61.38
26865;BME280;40618;51.166;10.322;2023-05-13T00:45:14;97680.31;;;13.67;61.50
26865;BME280;40618;51.166;10.322;2023-05-13T00:47:40;97677.41;;;13.53;61.43
26865;BME280;40618;51.166;10.322;2023-05-13T00:50:08;97682.41;;;13.34;61.38
26865;BME280;40618;51.166;10.322;2023-05-13T00:52:36;97681.16;;;13.22;61.54
26865;BME280;40618;51.166;10.322;2023-05-13T00:55:04;97682.09;;;13.19;61.73
26865;BME280;40618;51.166;10.322;2023-05-13T00:57:30;97682.88;;;13.21;61.77
26865;BME280;40618;51.166;10.322;2023-05-13T00:59:56;97678.38;;;13.27;61.88
26865;BME280;40618;51.166;10.322;2023-05-13T01:02:48;97684.38;;;13.29;61.90
26865;BME280;40618;51.166;10.322;2023-05-13T01:08:35;97683.88;;;13.19;61.80
26865;BME280;40618;51.166;10.322;2023-05-13T01:11:17;97687.97;;;13.01;61.70
26865;BME280;40618;51.166;10.322;2023-05-13T01:13:48;97688.97;;;12.97;61.90
26865;BME280;40618;51.166;10.322;2023-05-13T01:16:28;97687.50;;;12.90;62.18
26865;BME280;40618;51.166;10.322;2023-05-13T01:19:03;97686.75;;;12.86;62.24
26865;BME280;40618;51.166;10.322;2023-05-13T01:21:37;97687.06;;;12.78;62.11
26865;BME280;40618;51.166;10.322;2023-05-13T01:24:04;97689.06;;;12.70;62.36
26865;BME280;40618;51.166;10.322;2023-05-13T01:26:30;97686.63;;;12.65;62.23
26865;BME280;40618;51.166;10.322;2023-05-13T01:28:55;97684.13;;;12.62;62.34
26865;BME280;40618;51.166;10.322;2023-05-13T01:31:22;97688.50;;;12.62;62.54
26865;BME280;40618;51.166;10.322;2023-05-13T01:33:48;97685.97;;;12.59;62.47
26865;BME280;40618;51.166;10.322;2023-05-13T01:36:14;97686.84;;;12.59;62.67
26865;BME280;40618;51.166;10.322;2023-05-13T01:38:41;97687.69;;;12.60;62.47
26865;BME280;40618;51.166;10.322;2023-05-13T01:41:07;97682.44;;;12.61;62.67
26865;BME280;40618;51.166;10.322;2023-05-13T01:43:33;97688.50;;;12.62;62.56
26865;BME280;40618;51.166;10.322;2023-05-13T01:46:00;97697.19;;;12.61;62.59
26865;BME280;40618;51.166;10.322;2023-05-13T01:48:25;97700.03;;;12.53;62.51
26865;BME280;40618;51.166;10.322;2023-05-13T01:50:51;97699.44;;;12.45;62.46
26865;BME280;40618;51.166;10.322;2023-05-13T01:53:18;97701.34;;;12.40;62.96
26865;BME280;40618;51.166;10.322;2023-05-13T01:55:44;97701.19;;;12.44;62.99
26865;BME280;40618;51.166;10.322;2023-05-13T01:58:09;97700.34;;;12.44;62.77
26865;BME280;40618;51.166;10.322;2023-05-13T02:00:35;97697.78;;;12.42;62.76
26865;BME280;40618;51.166;10.322;2023-05-13T02:03:00;97705.63;;;12.41;62.86
26865;BME280;40618;51.166;10.322;2023-05-13T02:05:26;97700.66;;;12.34;62.57
26865;BME280;40618;51.166;10.322;2023-05-13T02:07:51;97708.63;;;12.28;62.98
26865;BME280;40618;51.166;10.322;2023-05-13T02:10:17;97708.03;;;12.20;62.82
26865;BME280;40618;51.166;10.322;2023-05-13T02:12:42;97708.22;;;12.15;62.68
26865;BME280;40618;51.166;10.322;2023-05-13T02:15:09;97703.00;;;12.15;63.03
26865;BME280;40618;51.166;10.322;2023-05-13T02:17:35;97704.78;;;12.13;62.90
26865;BME280;40618;51.166;10.322;2023-05-13T02:20:00;97699.56;;;12.15;62.91
26865;BME280;40618;51.166;10.322;2023-05-13T02:22:26;97702.25;;;12.12;62.81
26865;BME280;40618;51.166;10.322;2023-05-13T02:24:52;97697.34;;;12.02;62.79
26865;BME280;40618;51.166;10.322;2023-05-13T02:27:17;97699.34;;;11.94;63.08
26865;BME280;40618;51.166;10.322;2023-05-13T02:29:44;97700.22;;;11.93;63.09
26865;BME280;40618;51.166;10.322;2023-05-13T02:32:10;97701.13;;;11.92;63.30
26865;BME280;40618;51.166;10.322;2023-05-13T02:34:36;97698.47;;;11.94;63.11
26865;BME280;40618;51.166;10.322;2023-05-13T02:37:02;97705.28;;;11.98;63.25
26865;BME280;40618;51.166;10.322;2023-05-13T02:39:28;97704.47;;;11.96;63.46
26865;BME280;40618;51.166;10.322;2023-05-13T02:41:53;97707.06;;;11.96;63.38
26865;BME280;40618;51.166;10.322;2023-05-13T02:44:19;97706.25;;;11.94;63.01
26865;BME280;40618;51.166;10.322;2023-05-13T02:46:44;97698.56;;;11.91;63.42
26865;BME280;40618;51.166;10.322;2023-05-13T02:49:10;97700.31;;;11.90;63.29
26865;BME280;40618;51.166;10.322;2023-05-13T02:51:36;97698.63;;;11.89;63.28
26865;BME280;40618;51.166;10.322;2023-05-13T02:54:01;97698.56;;;11.91;63.35
26865;BME280;40618;51.166;10.322;2023-05-13T02:56:27;97694.38;;;11.87;63.57
26865;BME280;40618;51.166;10.322;2023-05-13T02:58:53;97704.16;;;11.78;63.56
26865;BME280;40618;51.166;10.322;2023-05-13T03:01:19;97700.94;;;11.70;63.53
26865;BME280;40618;51.166;10.322;2023-05-13T03:03:44;97698.53;;;11.64;63.44
26865;BME280;40618;51.166;10.322;2023-05-13T03:06:10;97697.47;;;11.69;63.90
26865;BME280;40618;51.166;10.322;2023-05-13T03:08:36;97698.84;;;11.81;63.81
26865;BME280;40618;51.166;10.322;2023-05-13T03:11:01;97692.63;;;11.87;63.72
26865;BME280;40618;51.166;10.322;2023-05-13T03:13:27;97698.75;;;11.84;63.71
26865;BME280;40618;51.166;10.322;2023-05-13T03:15:53;97699.91;;;11.76;63.73
26865;BME280;40618;51.166;10.322;2023-05-13T03:18:18;97701.56;;;11.78;64.04
26865;BME280;40618;51.166;10.322;2023-05-13T03:20:44;97703.22;;;11.79;64.40
26865;BME280;40618;51.166;10.322;2023-05-13T03:23:10;97701.56;;;11.78;64.15
26865;BME280;40618;51.166;10.322;2023-05-13T03:25:36;97707.75;;;11.73;63.91
26865;BME280;40618;51.166;10.322;2023-05-13T03:28:02;97706.03;;;11.73;63.83
26865;BME280;40618;51.166;10.322;2023-05-13T03:30:28;97699.19;;;11.71;64.16
26865;BME280;40618;51.166;10.322;2023-05-13T03:32:54;97694.19;;;11.64;64.27
26865;BME280;40618;51.166;10.322;2023-05-13T03:35:21;97694.38;;;11.58;63.88
26865;BME280;40618;51.166;10.322;2023-05-13T03:37:46;97690.13;;;11.56;64.36
26865;BME280;40618;51.166;10.322;2023-05-13T03:40:12;97700.56;;;11.54;64.46
26865;BME280;40618;51.166;10.322;2023-05-13T03:42:37;97690.22;;;11.52;64.32
26865;BME280;40618;51.166;10.322;2023-05-13T03:45:03;97701.31;;;11.58;64.41
26865;BME280;40618;51.166;10.322;2023-05-13T03:47:30;97692.44;;;11.65;64.30
26865;BME280;40618;51.166;10.322;2023-05-13T03:49:55;97693.34;;;11.64;64.25
26865;BME280;40618;51.166;10.322;2023-05-13T03:52:21;97695.97;;;11.62;64.49
26865;BME280;40618;51.166;10.322;2023-05-13T03:54:47;97696.97;;;11.58;64.61
26865;BME280;40618;51.166;10.322;2023-05-13T03:57:12;97702.22;;;11.57;64.66
26865;BME280;40618;51.166;10.322;2023-05-13T03:59:38;97699.56;;;11.58;64.95
26865;BME280;40618;51.166;10.322;2023-05-13T04:02:03;97704.81;;;11.57;64.84
26865;BME280;40618;51.166;10.322;2023-05-13T04:04:30;97703.31;;;11.48;64.92
26865;BME280;40618;51.166;10.322;2023-05-13T04:06:56;97705.97;;;11.46;64.60
26865;BME280;40618;51.166;10.322;2023-05-13T04:09:21;97702.47;;;11.47;64.62
26865;BME280;40618;51.166;10.322;2023-05-13T04:11:47;97700.56;;;11.54;64.80
26865;BME280;40618;51.166;10.322;2023-05-13T04:14:12;97703.81;;;11.61;65.10
26865;BME280;40618;51.166;10.322;2023-05-13T04:16:38;97705.69;;;11.56;64.84
26865;BME280;40618;51.166;10.322;2023-05-13T04:19:03;97708.44;;;11.49;64.93
26865;BME280;40618;51.166;10.322;2023-05-13T04:21:29;97704.03;;;11.53;64.82
26865;BME280;40618;51.166;10.322;2023-05-13T04:23:55;97707.28;;;11.60;65.23
26865;BME280;40618;51.166;10.322;2023-05-13T04:26:21;97696.81;;;11.63;65.28
26865;BME280;40618;51.166;10.322;2023-05-13T04:28:46;97704.66;;;11.61;64.87
26865;BME280;40618;51.166;10.322;2023-05-13T04:31:12;97701.31;;;11.58;65.30
26865;BME280;40618;51.166;10.322;2023-05-13T04:33:37;97707.28;;;11.60;65.89
26865;BME280;40618;51.166;10.322;2023-05-13T04:36:03;97701.06;;;11.65;65.70
26865;BME280;40618;51.166;10.322;2023-05-13T04:38:30;97708.91;;;11.64;65.69
26865;BME280;40618;51.166;10.322;2023-05-13T04:40:55;97708.84;;;11.65;65.50
26865;BME280;40618;51.166;10.322;2023-05-13T04:43:21;97708.63;;;11.73;65.87
26865;BME280;40618;51.166;10.322;2023-05-13T04:45:47;97711.06;;;11.78;65.53
26865;BME280;40618;51.166;10.322;2023-05-13T04:48:13;97712.78;;;11.79;65.88
26865;BME280;40618;51.166;10.322;2023-05-13T04:50:44;97715.31;;;11.80;65.71
26865;BME280;40618;51.166;10.322;2023-05-13T04:53:11;97715.31;;;11.80;65.43
26865;BME280;40618;51.166;10.322;2023-05-13T04:55:36;97715.38;;;11.79;65.58
26865;BME280;40618;51.166;10.322;2023-05-13T04:58:02;97720.50;;;11.80;65.74
26865;BME280;40618;51.166;10.322;2023-05-13T05:00:27;97712.81;;;11.77;65.71
26865;BME280;40618;51.166;10.322;2023-05-13T05:02:53;97712.06;;;11.74;66.03
26865;BME280;40618;51.166;10.322;2023-05-13T05:05:19;97715.59;;;11.71;65.74
26865;BME280;40618;51.166;10.322;2023-05-13T05:07:44;97720.78;;;11.71;66.30
26865;BME280;40618;51.166;10.322;2023-05-13T05:10:10;97720.72;;;11.74;66.27
26865;BME280;40618;51.166;10.322;2023-05-13T05:12:35;97722.34;;;11.77;66.19
26865;BME280;40618;51.166;10.322;2023-05-13T05:15:03;97726.78;;;11.73;65.85
26865;BME280;40618;51.166;10.322;2023-05-13T05:17:29;97721.66;;;11.72;66.40
26865;BME280;40618;51.166;10.322;2023-05-13T05:19:57;97725.06;;;11.72;66.06
26865;BME280;40618;51.166;10.322;2023-05-13T05:22:24;97727.78;;;11.69;66.18
26865;BME280;40618;51.166;10.322;2023-05-13T05:24:50;97726.06;;;11.68;66.38
26865;BME280;40618;51.166;10.322;2023-05-13T05:27:16;97727.78;;;11.69;66.43
26865;BME280;40618;51.166;10.322;2023-05-13T05:29:42;97730.38;;;11.69;65.96
26865;BME280;40618;51.166;10.322;2023-05-13T05:32:07;97725.06;;;11.72;66.15
26865;BME280;40618;51.166;10.322;2023-05-13T05:34:33;97727.50;;;11.78;66.11
26865;BME280;40618;51.166;10.322;2023-05-13T05:36:59;97730.72;;;11.85;66.52
26865;BME280;40618;51.166;10.322;2023-05-13T05:39:24;97727.91;;;11.93;66.30
26865;BME280;40618;51.166;10.322;2023-05-13T05:41:50;97723.56;;;11.95;66.52
26865;BME280;40618;51.166;10.322;2023-05-13T05:44:17;97727.81;;;11.97;66.31
26865;BME280;40618;51.166;10.322;2023-05-13T05:46:42;97730.31;;;12.00;65.87
26865;BME280;40618;51.166;10.322;2023-05-13T05:49:08;97736.22;;;12.04;66.02
26865;BME280;40618;51.166;10.322;2023-05-13T05:51:34;97728.38;;;12.07;66.17
26865;BME280;40618;51.166;10.322;2023-05-13T05:54:00;97742.84;;;12.14;65.99
26865;BME280;40618;51.166;10.322;2023-05-13T05:56:26;97739.31;;;12.17;66.07
26865;BME280;40618;51.166;10.322;2023-05-13T05:58:51;97747.84;;;12.21;66.08
26865;BME280;40618;51.166;10.322;2023-05-13T06:01:17;97746.94;;;12.22;65.90
26865;BME280;40618;51.166;10.322;2023-05-13T06:03:42;97748.63;;;12.23;65.98
26865;BME280;40618;51.166;10.322;2023-05-13T06:06:09;97752.94;;;12.24;66.02
26865;BME280;40618;51.166;10.322;2023-05-13T06:08:35;97746.84;;;12.25;66.13
26865;BME280;40618;51.166;10.322;2023-05-13T06:11:00;97751.06;;;12.27;65.93
26865;BME280;40618;51.166;10.322;2023-05-13T06:13:26;97747.59;;;12.28;65.90
26865;BME280;40618;51.166;10.322;2023-05-13T06:15:52;97745.88;;;12.29;66.01
26865;BME280;40618;51.166;10.322;2023-05-13T06:18:17;97752.78;;;12.28;65.87
26865;BME280;40618;51.166;10.322;2023-05-13T06:20:43;97756.19;;;12.30;65.93
26865;BME280;40618;51.166;10.322;2023-05-13T06:23:09;97751.72;;;12.34;65.90
26865;BME280;40618;51.166;10.322;2023-05-13T06:25:35;97752.44;;;12.39;65.91
26865;BME280;40618;51.166;10.322;2023-05-13T06:28:00;97748.06;;;12.41;65.66
26865;BME280;40618;51.166;10.322;2023-05-13T06:30:26;97749.72;;;12.42;65.79
26865;BME280;40618;51.166;10.322;2023-05-13T06:32:51;97752.19;;;12.47;65.96
26865;BME280;40618;51.166;10.322;2023-05-13T06:35:19;97749.38;;;12.53;65.80
26865;BME280;40618;51.166;10.322;2023-05-13T06:37:45;97744.03;;;12.58;65.89
26865;BME280;40618;51.166;10.322;2023-05-13T06:40:11;97745.59;;;12.63;65.75
26865;BME280;40618;51.166;10.322;2023-05-13T06:42:37;97752.22;;;12.72;65.77
26865;BME280;40618;51.166;10.322;2023-05-13T06:45:06;97747.59;;;12.80;65.58
26865;BME280;40618;51.166;10.322;2023-05-13T06:47:32;97744.69;;;12.90;65.67
26865;BME280;40618;51.166;10.322;2023-05-13T06:49:58;97747.03;;;12.97;65.55
26865;BME280;40618;51.166;10.322;2023-05-13T06:52:24;97750.22;;;13.06;65.51
26865;BME280;40618;51.166;10.322;2023-05-13T06:54:49;97744.72;;;13.13;65.40
26865;BME280;40618;51.166;10.322;2023-05-13T06:57:15;97751.34;;;13.22;65.46
26865;BME280;40618;51.166;10.322;2023-05-13T06:59:42;97745.81;;;13.31;65.31
26865;BME280;40618;51.166;10.322;2023-05-13T07:02:10;97744.53;;;13.43;65.23
26865;BME280;40618;51.166;10.322;2023-05-13T07:04:36;97751.19;;;13.50;65.12
26865;BME280;40618;51.166;10.322;2023-05-13T07:07:02;97751.72;;;13.60;65.25
26865;BME280;40618;51.166;10.322;2023-05-13T07:09:27;97752.16;;;13.71;65.11
26865;BME280;40618;51.166;10.322;2023-05-13T07:11:53;97763.88;;;13.83;64.91
26865;BME280;40618;51.166;10.322;2023-05-13T07:14:18;97755.81;;;13.90;64.68
26865;BME280;40618;51.166;10.322;2023-05-13T07:16:45;97754.91;;;13.91;64.59
26865;BME280;40618;51.166;10.322;2023-05-13T07:19:10;97754.91;;;13.91;64.68
26865;BME280;40618;51.166;10.322;2023-05-13T07:21:37;97752.31;;;13.91;64.75
26865;BME280;40618;51.166;10.322;2023-05-13T07:24:02;97754.00;;;13.92;64.35
26865;BME280;40618;51.166;10.322;2023-05-13T07:26:30;97753.06;;;13.94;64.34
26865;BME280;40618;51.166;10.322;2023-05-13T07:28:56;97756.22;;;14.01;64.76
26865;BME280;40618;51.166;10.322;2023-05-13T07:31:22;97754.19;;;14.09;64.74
26865;BME280;40618;51.166;10.322;2023-05-13T07:33:47;97749.63;;;14.14;64.30
26865;BME280;40618;51.166;10.322;2023-05-13T07:36:13;97750.31;;;14.19;64.46
26865;BME280;40618;51.166;10.322;2023-05-13T07:38:38;97750.91;;;14.26;64.31
26865;BME280;40618;51.166;10.322;2023-05-13T07:41:04;97744.41;;;14.36;64.07
26865;BME280;40618;51.166;10.322;2023-05-13T07:43:30;97743.97;;;14.47;64.33
26865;BME280;40618;51.166;10.322;2023-05-13T07:45:59;97737.53;;;14.56;64.06
26865;BME280;40618;51.166;10.322;2023-05-13T07:48:25;97740.09;;;14.58;64.04
26865;BME280;40618;51.166;10.322;2023-05-13T07:50:52;97741.53;;;14.65;63.85
26865;BME280;40618;51.166;10.322;2023-05-13T07:53:18;97740.19;;;14.77;63.86
26865;BME280;40618;51.166;10.322;2023-05-13T07:55:44;97738.69;;;14.92;63.89
26865;BME280;40618;51.166;10.322;2023-05-13T07:58:09;97744.22;;;15.04;63.83
26865;BME280;40618;51.166;10.322;2023-05-13T08:00:35;97746.16;;;15.20;63.85
26865;BME280;40618;51.166;10.322;2023-05-13T08:03:01;97745.41;;;15.37;63.35
26865;BME280;40618;51.166;10.322;2023-05-13T08:05:26;97739.63;;;15.49;63.15
26865;BME280;40618;51.166;10.322;2023-05-13T08:07:52;97745.06;;;15.64;63.20
26865;BME280;40618;51.166;10.322;2023-05-13T08:10:17;97739.34;;;15.74;63.12
26865;BME280;40618;51.166;10.322;2023-05-13T08:12:43;97745.03;;;15.84;62.98
26865;BME280;40618;51.166;10.322;2023-05-13T08:15:15;97742.91;;;15.93;62.71
26865;BME280;40618;51.166;10.322;2023-05-13T08:17:41;97747.53;;;16.05;62.28
26865;BME280;40618;51.166;10.322;2023-05-13T08:20:07;97743.56;;;16.15;62.29
26865;BME280;40618;51.166;10.322;2023-05-13T08:22:33;97742.28;;;16.24;62.15
26865;BME280;40618;51.166;10.322;2023-05-13T08:24:58;97746.53;;;16.27;61.81
26865;BME280;40618;51.166;10.322;2023-05-13T08:27:25;97746.19;;;16.33;61.81
26865;BME280;40618;51.166;10.322;2023-05-13T08:29:51;97746.59;;;16.42;62.00
26865;BME280;40618;51.166;10.322;2023-05-13T08:32:16;97749.53;;;16.54;62.03
26865;BME280;40618;51.166;10.322;2023-05-13T08:34:43;97747.06;;;16.68;61.60
26865;BME280;40618;51.166;10.322;2023-05-13T08:37:08;97751.69;;;16.81;61.20
26865;BME280;40618;51.166;10.322;2023-05-13T08:39:34;97747.63;;;16.92;61.32
26865;BME280;40618;51.166;10.322;2023-05-13T08:42:02;97748.09;;;17.01;60.99
26865;BME280;40618;51.166;10.322;2023-05-13T08:44:28;97748.75;;;17.04;60.99
26865;BME280;40618;51.166;10.322;2023-05-13T08:47:06;97755.59;;;17.07;61.09
26865;BME280;40618;51.166;10.322;2023-05-13T08:49:38;97745.66;;;17.14;60.76
26865;BME280;40618;51.166;10.322;2023-05-13T08:52:04;97744.84;;;17.13;60.56
26865;BME280;40618;51.166;10.322;2023-05-13T08:54:30;97742.84;;;17.18;60.38
26865;BME280;40618;51.166;10.322;2023-05-13T08:56:57;97737.34;;;17.23;60.44
26865;BME280;40618;51.166;10.322;2023-05-13T08:59:22;97740.22;;;17.18;60.17
26865;BME280;40618;51.166;10.322;2023-05-13T09:01:49;97747.72;;;17.24;60.54
26865;BME280;40618;51.166;10.322;2023-05-13T09:04:15;97748.16;;;17.33;60.17
26865;BME280;40618;51.166;10.322;2023-05-13T09:06:41;97751.47;;;17.36;60.31
26865;BME280;40618;51.166;10.322;2023-05-13T09:09:07;97755.53;;;17.42;60.17
26865;BME280;40618;51.166;10.322;2023-05-13T09:11:34;97761.53;;;17.44;60.21
26865;BME280;40618;51.166;10.322;2023-05-13T09:14:01;97755.81;;;17.53;60.29
26865;BME280;40618;51.166;10.322;2023-05-13T09:16:28;97752.88;;;17.59;60.31
26865;BME280;40618;51.166;10.322;2023-05-13T09:19:03;97754.06;;;17.54;59.96
26865;BME280;40618;51.166;10.322;2023-05-13T09:21:33;97751.09;;;17.60;60.10
26865;BME280;40618;51.166;10.322;2023-05-13T09:24:15;97755.66;;;17.72;60.05
26865;BME280;40618;51.166;10.322;2023-05-13T09:26:47;97748.75;;;17.87;60.11
26865;BME280;40618;51.166;10.322;2023-05-13T09:31:57;97754.00;;;18.03;60.05
26865;BME280;40618;51.166;10.322;2023-05-13T09:34:24;97756.88;;;18.15;59.85
26865;BME280;40618;51.166;10.322;2023-05-13T09:37:02;97747.59;;;18.09;59.58
26865;BME280;40618;51.166;10.322;2023-05-13T09:39:39;97747.50;;;18.10;59.65
26865;BME280;40618;51.166;10.322;2023-05-13T09:42:14;97740.66;;;18.08;59.33
26865;BME280;40618;51.166;10.322;2023-05-13T09:44:41;97746.25;;;18.02;59.56
26865;BME280;40618;51.166;10.322;2023-05-13T09:47:12;97749.69;;;18.18;59.75
26865;BME280;40618;51.166;10.322;2023-05-13T09:49:40;97745.88;;;18.24;59.38
26865;BME280;40618;51.166;10.322;2023-05-13T09:52:10;97745.19;;;18.20;59.25
26865;BME280;40618;51.166;10.322;2023-05-13T09:54:38;97739.25;;;18.33;59.73
26865;BME280;40618;51.166;10.322;2023-05-13T09:57:05;97743.47;;;18.51;59.30
26865;BME280;40618;51.166;10.322;2023-05-13T09:59:34;97741.91;;;18.63;59.17
26865;BME280;40618;51.166;10.322;2023-05-13T10:02:03;97751.75;;;18.74;59.04
26865;BME280;40618;51.166;10.322;2023-05-13T10:04:31;97752.91;;;18.84;58.36
26865;BME280;40618;51.166;10.322;2023-05-13T10:06:58;97746.81;;;18.84;58.21
26865;BME280;40618;51.166;10.322;2023-05-13T10:09:27;97752.97;;;18.99;58.28
26865;BME280;40618;51.166;10.322;2023-05-13T10:11:58;97739.66;;;19.16;58.04
26865;BME280;40618;51.166;10.322;2023-05-13T10:14:26;97755.25;;;19.19;57.88
26865;BME280;40618;51.166;10.322;2023-05-13T10:16:53;97741.75;;;19.25;57.45
26865;BME280;40618;51.166;10.322;2023-05-13T10:19:19;97745.28;;;19.24;57.30
26865;BME280;40618;51.166;10.322;2023-05-13T10:21:46;97745.28;;;19.24;57.09
26865;BME280;40618;51.166;10.322;2023-05-13T10:24:13;97736.69;;;19.22;56.92
26865;BME280;40618;51.166;10.322;2023-05-13T10:26:39;97741.63;;;19.27;56.69
26865;BME280;40618;51.166;10.322;2023-05-13T10:29:05;97736.97;;;19.32;56.64
26865;BME280;40618;51.166;10.322;2023-05-13T10:31:32;97746.72;;;19.30;56.48
26865;BME280;40618;51.166;10.322;2023-05-13T10:33:59;97742.97;;;19.34;56.36
26865;BME280;40618;51.166;10.322;2023-05-13T10:42:41;97742.47;;;19.42;56.50
26865;BME280;40618;51.166;10.322;2023-05-13T10:45:09;97733.69;;;19.57;56.08
26865;BME280;40618;51.166;10.322;2023-05-13T10:47:35;97746.56;;;19.75;55.98
26865;BME280;40618;51.166;10.322;2023-05-13T10:50:24;97743.31;;;19.86;55.31
26865;BME280;40618;51.166;10.322;2023-05-13T10:52:54;97744.44;;;19.82;55.21
26865;BME280;40618;51.166;10.322;2023-05-13T10:55:22;97749.69;;;19.82;54.42
26865;BME280;40618;51.166;10.322;2023-05-13T10:58:10;97748.94;;;19.79;54.46
26865;BME280;40618;51.166;10.322;2023-05-13T11:00:43;97737.78;;;19.90;54.79
26865;BME280;40618;51.166;10.322;2023-05-13T11:06:00;97738.72;;;20.17;54.35
26865;BME280;40618;51.166;10.322;2023-05-13T11:08:41;97738.25;;;20.37;54.37
26865;BME280;40618;51.166;10.322;2023-05-13T11:16:16;97741.81;;;20.23;53.62
26865;BME280;40618;51.166;10.322;2023-05-13T11:18:42;97745.22;;;20.11;54.28
26865;BME280;40618;51.166;10.322;2023-05-13T11:21:08;97745.31;;;20.09;53.63
26865;BME280;40618;51.166;10.322;2023-05-13T11:23:55;97729.56;;;20.09;53.57
26865;BME280;40618;51.166;10.322;2023-05-13T11:26:23;97733.22;;;20.07;53.61
26865;BME280;40618;51.166;10.322;2023-05-13T11:28:58;97742.78;;;20.08;53.71
26865;BME280;40618;51.166;10.322;2023-05-13T11:31:50;97730.94;;;20.15;52.94
26865;BME280;40618;51.166;10.322;2023-05-13T11:34:18;97735.41;;;19.86;52.78
26865;BME280;40618;51.166;10.322;2023-05-13T11:36:46;97743.50;;;19.68;52.56
26865;BME280;40618;51.166;10.322;2023-05-13T11:39:16;97745.69;;;19.61;52.61
26865;BME280;40618;51.166;10.322;2023-05-13T11:41:49;97720.53;;;19.57;52.43
26865;BME280;40618;51.166;10.322;2023-05-13T11:44:23;97730.75;;;19.48;51.60
26865;BME280;40618;51.166;10.322;2023-05-13T11:46:54;97724.78;;;19.45;52.14
26865;BME280;40618;51.166;10.322;2023-05-13T11:49:41;97724.25;;;19.68;52.31
26865;BME280;40618;51.166;10.322;2023-05-13T11:52:11;97723.50;;;19.94;51.99
26865;BME280;40618;51.166;10.322;2023-05-13T11:54:59;97716.25;;;19.98;51.84
26865;BME280;40618;51.166;10.322;2023-05-13T11:57:26;97726.13;;;19.94;51.99
26865;BME280;40618;51.166;10.322;2023-05-13T11:59:56;97716.44;;;19.95;51.66
26865;BME280;40618;51.166;10.322;2023-05-13T12:02:24;97729.88;;;19.90;51.64
26865;BME280;40618;51.166;10.322;2023-05-13T12:04:52;97732.53;;;19.90;51.88
26865;BME280;40618;51.166;10.322;2023-05-13T12:07:22;97731.44;;;20.07;51.66
26865;BME280;40618;51.166;10.322;2023-05-13T12:09:49;97723.41;;;20.23;51.31
26865;BME280;40618;51.166;10.322;2023-05-13T12:12:17;97713.50;;;20.27;50.65
26865;BME280;40618;51.166;10.322;2023-05-13T12:14:47;97727.66;;;20.39;50.99
26865;BME280;40618;51.166;10.322;2023-05-13T12:17:17;97719.69;;;20.53;50.58
26865;BME280;40618;51.166;10.322;2023-05-13T12:22:35;97732.41;;;20.46;49.89
26865;BME280;40618;51.166;10.322;2023-05-13T12:30:53;97732.31;;;20.48;49.74
26865;BME280;40618;51.166;10.322;2023-05-13T12:33:28;97731.97;;;20.40;49.43
26865;BME280;40618;51.166;10.322;2023-05-13T12:36:24;97725.59;;;20.17;49.63
26865;BME280;40618;51.166;10.322;2023-05-13T12:39:05;97736.34;;;20.26;49.36
26865;BME280;40618;51.166;10.322;2023-05-13T12:41:49;97741.66;;;20.12;49.25
26865;BME280;40618;51.166;10.322;2023-05-13T12:44:18;97732.22;;;19.95;49.45
26865;BME280;40618;51.166;10.322;2023-05-13T12:46:52;97736.38;;;19.85;49.57
26865;BME280;40618;51.166;10.322;2023-05-13T12:49:18;97726.91;;;19.68;49.19
26865;BME280;40618;51.166;10.322;2023-05-13T12:51:44;97731.22;;;19.54;49.54
26865;BME280;40618;51.166;10.322;2023-05-13T12:54:11;97729.16;;;19.45;49.23
26865;BME280;40618;51.166;10.322;2023-05-13T12:56:37;97732.75;;;19.44;49.40
26865;BME280;40618;51.166;10.322;2023-05-13T12:59:06;97718.19;;;19.53;49.17
26865;BME280;40618;51.166;10.322;2023-05-13T13:01:33;97715.25;;;19.72;49.22
26865;BME280;40618;51.166;10.322;2023-05-13T13:03:59;97723.88;;;19.88;49.05
26865;BME280;40618;51.166;10.322;2023-05-13T13:06:25;97728.69;;;20.09;48.93
26865;BME280;40618;51.166;10.322;2023-05-13T13:08:50;97730.84;;;20.17;48.87
26865;BME280;40618;51.166;10.322;2023-05-13T13:11:16;97724.19;;;20.38;48.74
26865;BME280;40618;51.166;10.322;2023-05-13T13:13:46;97720.94;;;20.48;48.56
26865;BME280;40618;51.166;10.322;2023-05-13T13:16:13;97713.06;;;20.60;48.47
26865;BME280;40618;51.166;10.322;2023-05-13T13:18:39;97713.22;;;20.72;47.37
26865;BME280;40618;51.166;10.322;2023-05-13T13:21:05;97724.44;;;20.61;47.68